sensor_id;sensor_type;location;lat;lon;timestamp;P1;durP1;ratioP1;P2;durP2;ratioP2
5678;SDS011;2862;52.560;13.566;2023-06-10T00:08:02;29.10;;;4.07;;
5678;SDS011;2862;52.560;13.566;2023-06-10T00:18:08;26.50;;;3.83;;
5678;SDS011;2862;52.560;13.566;2023-06-10T00:28:13;25.13;;;4.30;;
5678;SDS011;2862;52.560;13.566;2023-06-10T00:38:16;21.80;;;3.60;;
5678;SDS011;2862;52.560;13.566;2023-06-10T00:48:20;23.80;;;2.73;;
5678;SDS011;2862;52.560;13.566;2023-06-10T00:58:23;24.00;;;2.90;;
5678;SDS011;2862;52.560;13.566;2023-06-10T01:08:31;20.33;;;3.50;;
5678;SDS011;2862;52.560;13.566;2023-06-10T01:18:40;22.60;;;3.53;;
5678;SDS011;2862;52.560;13.566;2023-06-10T01:28:46;24.80;;;3.50;;
5678;SDS011;2862;52.560;13.566;2023-06-10T01:38:55;27.67;;;4.90;;
5678;SDS011;2862;52.560;13.566;2023-06-10T01:49:00;30.53;;;4.73;;
5678;SDS011;2862;52.560;13.566;2023-06-10T01:59:03;22.50;;;4.07;;
5678;SDS011;2862;52.560;13.566;2023-06-10T02:09:07;21.67;;;4.60;;
5678;SDS011;2862;52.560;13.566;2023-06-10T02:19:10;33.83;;;5.47;;
5678;SDS011;2862;52.560;13.566;2023-06-10T02:29:15;27.10;;;4.83;;
5678;SDS011;2862;52.560;13.566;2023-06-10T02:39:18;27.43;;;4.70;;
5678;SDS011;2862;52.560;13.566;2023-06-10T02:49:23;27.77;;;5.07;;
5678;SDS011;2862;52.560;13.566;2023-06-10T02:59:30;29.83;;;4.17;;
5678;SDS011;2862;52.560;13.566;2023-06-10T03:09:35;23.73;;;4.70;;
5678;SDS011;2862;52.560;13.566;2023-06-10T03:19:39;27.90;;;5.03;;
5678;SDS011;2862;52.560;13.566;2023-06-10T03:29:44;25.57;;;5.33;;
5678;SDS011;2862;52.560;13.566;2023-06-10T03:39:47;34.67;;;9.37;;
5678;SDS011;2862;52.560;13.566;2023-06-10T03:49:52;23.40;;;5.00;;
5678;SDS011;2862;52.560;13.566;2023-06-10T03:59:55;29.77;;;5.13;;
5678;SDS011;2862;52.560;13.566;2023-06-10T04:10:00;27.13;;;5.20;;
5678;SDS011;2862;52.560;13.566;2023-06-10T04:20:04;29.13;;;5.77;;
5678;SDS011;2862;52.560;13.566;2023-06-10T04:30:14;28.20;;;6.00;;
5678;SDS011;2862;52.560;13.566;2023-06-10T04:40:18;23.07;;;4.40;;
5678;SDS011;2862;52.560;13.566;2023-06-10T04:50:23;27.93;;;5.10;;
5678;SDS011;2862;52.560;13.566;2023-06-10T05:00:26;27.93;;;4.90;;
5678;SDS011;2862;52.560;13.566;2023-06-10T05:10:31;26.80;;;5.50;;
5678;SDS011;2862;52.560;13.566;2023-06-10T05:20:35;25.40;;;4.73;;
5678;SDS011;2862;52.560;13.566;2023-06-10T05:30:40;25.10;;;5.60;;
5678;SDS011;2862;52.560;13.566;2023-06-10T05:40:43;29.47;;;4.77;;
5678;SDS011;2862;52.560;13.566;2023-06-10T05:50:47;25.37;;;4.87;;
5678;SDS011;2862;52.560;13.566;2023-06-10T06:00:50;25.30;;;5.37;;
5678;SDS011;2862;52.560;13.566;2023-06-10T06:10:54;26.43;;;5.23;;
5678;SDS011;2862;52.560;13.566;2023-06-10T06:20:57;26.63;;;5.90;;
5678;SDS011;2862;52.560;13.566;2023-06-10T06:31:02;23.00;;;5.37;;
5678;SDS011;2862;52.560;13.566;2023-06-10T06:41:05;27.87;;;5.50;;
5678;SDS011;2862;52.560;13.566;2023-06-10T06:51:09;24.53;;;5.27;;
5678;SDS011;2862;52.560;13.566;2023-06-10T07:01:12;26.50;;;7.90;;
5678;SDS011;2862;52.560;13.566;2023-06-10T07:11:16;23.43;;;7.13;;
5678;SDS011;2862;52.560;13.566;2023-06-10T07:21:19;22.57;;;5.80;;
5678;SDS011;2862;52.560;13.566;2023-06-10T07:31:25;29.80;;;5.13;;
5678;SDS011;2862;52.560;13.566;2023-06-10T07:41:28;20.10;;;4.80;;
5678;SDS011;2862;52.560;13.566;2023-06-10T07:51:32;25.30;;;9.27;;
5678;SDS011;2862;52.560;13.566;2023-06-10T08:01:34;24.40;;;5.70;;
5678;SDS011;2862;52.560;13.566;2023-06-10T08:11:41;20.83;;;5.40;;
5678;SDS011;2862;52.560;13.566;2023-06-10T08:21:44;22.87;;;6.43;;
5678;SDS011;2862;52.560;13.566;2023-06-10T08:31:48;23.47;;;8.23;;
5678;SDS011;2862;52.560;13.566;2023-06-10T08:41:54;27.20;;;6.10;;
5678;SDS011;2862;52.560;13.566;2023-06-10T08:52:08;21.70;;;4.57;;
5678;SDS011;2862;52.560;13.566;2023-06-10T09:02:16;20.90;;;5.07;;
5678;SDS011;2862;52.560;13.566;2023-06-10T09:12:23;25.07;;;5.67;;
5678;SDS011;2862;52.560;13.566;2023-06-10T09:22:26;26.23;;;8.87;;
5678;SDS011;2862;52.560;13.566;2023-06-10T09:32:30;29.30;;;8.10;;
5678;SDS011;2862;52.560;13.566;2023-06-10T09:42:33;24.60;;;7.07;;
5678;SDS011;2862;52.560;13.566;2023-06-10T09:52:39;23.47;;;6.30;;
5678;SDS011;2862;52.560;13.566;2023-06-10T10:02:45;23.23;;;4.10;;
5678;SDS011;2862;52.560;13.566;2023-06-10T10:12:52;19.07;;;3.83;;
5678;SDS011;2862;52.560;13.566;2023-06-10T10:23:02;17.80;;;3.87;;
5678;SDS011;2862;52.560;13.566;2023-06-10T10:33:09;27.20;;;8.03;;
5678;SDS011;2862;52.560;13.566;2023-06-10T10:43:15;25.77;;;6.00;;
5678;SDS011;2862;52.560;13.566;2023-06-10T10:53:21;28.73;;;5.37;;
5678;SDS011;2862;52.560;13.566;2023-06-10T11:03:27;18.97;;;3.30;;
5678;SDS011;2862;52.560;13.566;2023-06-10T11:13:33;19.30;;;3.23;;
5678;SDS011;2862;52.560;13.566;2023-06-10T11:23:41;18.67;;;4.27;;
5678;SDS011;2862;52.560;13.566;2023-06-10T11:33:46;20.37;;;4.70;;
5678;SDS011;2862;52.560;13.566;2023-06-10T11:43:50;19.73;;;4.57;;
5678;SDS011;2862;52.560;13.566;2023-06-10T11:53:54;19.27;;;4.00;;
5678;SDS011;2862;52.560;13.566;2023-06-10T12:04:01;18.87;;;4.80;;
5678;SDS011;2862;52.560;13.566;2023-06-10T12:14:06;21.10;;;4.93;;
5678;SDS011;2862;52.560;13.566;2023-06-10T12:24:10;22.07;;;7.00;;
5678;SDS011;2862;52.560;13.566;2023-06-10T12:34:15;22.07;;;7.60;;
5678;SDS011;2862;52.560;13.566;2023-06-10T12:44:18;21.67;;;7.23;;
5678;SDS011;2862;52.560;13.566;2023-06-10T12:54:34;25.30;;;7.40;;
5678;SDS011;2862;52.560;13.566;2023-06-10T13:04:43;21.27;;;7.10;;
5678;SDS011;2862;52.560;13.566;2023-06-10T13:14:50;23.07;;;6.93;;
5678;SDS011;2862;52.560;13.566;2023-06-10T13:24:55;27.33;;;6.27;;
5678;SDS011;2862;52.560;13.566;2023-06-10T13:34:59;21.13;;;6.43;;
5678;SDS011;2862;52.560;13.566;2023-06-10T13:45:06;18.30;;;5.00;;
5678;SDS011;2862;52.560;13.566;2023-06-10T13:55:15;18.80;;;3.73;;
5678;SDS011;2862;52.560;13.566;2023-06-10T14:05:20;21.70;;;5.17;;
5678;SDS011;2862;52.560;13.566;2023-06-10T14:15:24;20.10;;;5.57;;
5678;SDS011;2862;52.560;13.566;2023-06-10T14:25:29;20.20;;;4.80;;
5678;SDS011;2862;52.560;13.566;2023-06-10T14:35:33;19.83;;;3.87;;
5678;SDS011;2862;52.560;13.566;2023-06-10T14:45:36;18.70;;;3.00;;
5678;SDS011;2862;52.560;13.566;2023-06-10T14:55:41;21.13;;;3.80;;
5678;SDS011;2862;52.560;13.566;2023-06-10T15:05:44;18.77;;;4.53;;
5678;SDS011;2862;52.560;13.566;2023-06-10T15:15:48;25.13;;;4.20;;
5678;SDS011;2862;52.560;13.566;2023-06-10T15:25:52;23.10;;;4.53;;
5678;SDS011;2862;52.560;13.566;2023-06-10T15:35:56;22.07;;;4.47;;
5678;SDS011;2862;52.560;13.566;2023-06-10T15:46:02;20.40;;;3.60;;
5678;SDS011;2862;52.560;13.566;2023-06-10T15:56:07;17.67;;;3.27;;
5678;SDS011;2862;52.560;13.566;2023-06-10T16:06:12;16.90;;;3.00;;
5678;SDS011;2862;52.560;13.566;2023-06-10T16:16:17;15.47;;;2.60;;
5678;SDS011;2862;52.560;13.566;2023-06-10T16:26:22;22.90;;;3.13;;
5678;SDS011;2862;52.560;13.566;2023-06-10T16:36:26;17.43;;;3.13;;
5678;SDS011;2862;52.560;13.566;2023-06-10T16:46:29;16.93;;;2.60;;
5678;SDS011;2862;52.560;13.566;2023-06-10T16:56:33;16.20;;;2.93;;
5678;SDS011;2862;52.560;13.566;2023-06-10T17:06:36;16.47;;;2.80;;
5678;SDS011;2862;52.560;13.566;2023-06-10T17:16:41;17.53;;;3.90;;
5678;SDS011;2862;52.560;13.566;2023-06-10T17:26:43;17.90;;;3.00;;
5678;SDS011;2862;52.560;13.566;2023-06-10T17:36:48;14.57;;;2.47;;
5678;SDS011;2862;52.560;13.566;2023-06-10T17:46:50;22.00;;;4.17;;
5678;SDS011;2862;52.560;13.566;2023-06-10T17:56:55;16.10;;;3.07;;
5678;SDS011;2862;52.560;13.566;2023-06-10T18:06:57;23.07;;;4.00;;
5678;SDS011;2862;52.560;13.566;2023-06-10T18:17:03;19.43;;;3.13;;
5678;SDS011;2862;52.560;13.566;2023-06-10T18:27:07;18.83;;;3.60;;
5678;SDS011;2862;52.560;13.566;2023-06-10T18:37:11;18.30;;;3.60;;
5678;SDS011;2862;52.560;13.566;2023-06-10T18:47:14;20.57;;;3.93;;
5678;SDS011;2862;52.560;13.566;2023-06-10T18:57:18;17.23;;;3.93;;
5678;SDS011;2862;52.560;13.566;2023-06-10T19:07:22;19.47;;;3.67;;
5678;SDS011;2862;52.560;13.566;2023-06-10T19:17:26;19.50;;;3.13;;
5678;SDS011;2862;52.560;13.566;2023-06-10T19:27:29;18.87;;;3.60;;
5678;SDS011;2862;52.560;13.566;2023-06-10T19:37:33;19.10;;;4.63;;
5678;SDS011;2862;52.560;13.566;2023-06-10T19:47:36;19.07;;;3.60;;
5678;SDS011;2862;52.560;13.566;2023-06-10T19:57:41;20.83;;;3.93;;
5678;SDS011;2862;52.560;13.566;2023-06-10T20:07:44;24.97;;;3.70;;
5678;SDS011;2862;52.560;13.566;2023-06-10T20:17:48;21.03;;;2.87;;
5678;SDS011;2862;52.560;13.566;2023-06-10T20:27:53;18.27;;;3.43;;
5678;SDS011;2862;52.560;13.566;2023-06-10T20:37:57;21.20;;;3.07;;
5678;SDS011;2862;52.560;13.566;2023-06-10T20:48:00;22.10;;;3.30;;
5678;SDS011;2862;52.560;13.566;2023-06-10T20:58:04;18.33;;;3.30;;
5678;SDS011;2862;52.560;13.566;2023-06-10T21:08:07;26.97;;;4.50;;
5678;SDS011;2862;52.560;13.566;2023-06-10T21:18:12;22.77;;;3.70;;
5678;SDS011;2862;52.560;13.566;2023-06-10T21:28:15;19.77;;;3.40;;
5678;SDS011;2862;52.560;13.566;2023-06-10T21:38:20;21.40;;;3.20;;
5678;SDS011;2862;52.560;13.566;2023-06-10T21:48:25;58.17;;;4.53;;
5678;SDS011;2862;52.560;13.566;2023-06-10T21:58:30;19.27;;;3.30;;
5678;SDS011;2862;52.560;13.566;2023-06-10T22:08:33;24.27;;;3.50;;
5678;SDS011;2862;52.560;13.566;2023-06-10T22:18:38;19.40;;;2.60;;
5678;SDS011;2862;52.560;13.566;2023-06-10T22:28:41;18.43;;;2.77;;
5678;SDS011;2862;52.560;13.566;2023-06-10T22:38:46;17.17;;;2.23;;
5678;SDS011;2862;52.560;13.566;2023-06-10T22:48:50;17.43;;;2.03;;
5678;SDS011;2862;52.560;13.566;2023-06-10T22:58:54;24.43;;;2.77;;
5678;SDS011;2862;52.560;13.566;2023-06-10T23:08:57;19.40;;;2.00;;
5678;SDS011;2862;52.560;13.566;2023-06-10T23:19:02;19.00;;;2.50;;
5678;SDS011;2862;52.560;13.566;2023-06-10T23:29:06;19.77;;;2.23;;
5678;SDS011;2862;52.560;13.566;2023-06-10T23:39:11;17.37;;;2.00;;
5678;SDS011;2862;52.560;13.566;2023-06-10T23:49:14;16.17;;;1.50;;
5678;SDS011;2862;52.560;13.566;2023-06-10T23:59:18;18.40;;;1.87;;
